createdAt,value
2017-12-19T00:00:29.680Z,69.26
2017-12-19T00:01:05.156Z,69.26
2017-12-19T00:01:40.468Z,69.17
2017-12-19T00:02:15.743Z,69.54
2017-12-19T00:02:51.141Z,69.20
2017-12-19T00:03:26.849Z,69.67
2017-12-19T00:04:02.047Z,69.67
2017-12-19T00:04:37.639Z,69.48
2017-12-19T00:05:12.912Z,69.48
2017-12-19T00:05:48.204Z,69.45
2017-12-19T00:06:23.678Z,69.64
2017-12-19T00:06:58.979Z,69.17
2017-12-19T00:07:34.386Z,69.45
2017-12-19T00:08:09.456Z,69.54
2017-12-19T00:08:45.892Z,69.73
2017-12-19T00:09:20.959Z,69.38
2017-12-19T00:09:56.591Z,68.73
2017-12-19T00:10:31.900Z,69.26
2017-12-19T00:11:07.064Z,69.38
2017-12-19T00:11:42.368Z,69.29
2017-12-19T00:12:17.536Z,69.20
2017-12-19T00:12:53.463Z,68.88
2017-12-19T00:13:28.835Z,69.20
2017-12-19T00:14:04.427Z,68.98
2017-12-19T00:14:39.725Z,69.67
2017-12-19T00:15:14.901Z,69.29
2017-12-19T00:15:50.618Z,69.29
2017-12-19T00:16:25.812Z,68.91
2017-12-19T00:17:01.198Z,68.98
2017-12-19T00:17:36.494Z,69.38
2017-12-19T00:18:11.863Z,69.29
2017-12-19T00:18:47.191Z,69.35
2017-12-19T00:19:22.363Z,69.67
2017-12-19T00:19:57.562Z,69.10
2017-12-19T00:20:32.756Z,68.79
2017-12-19T00:21:08.126Z,69.38
2017-12-19T00:21:43.225Z,69.20
2017-12-19T00:22:18.412Z,69.10
2017-12-19T00:22:53.922Z,69.10
2017-12-19T00:23:28.917Z,69.38
2017-12-19T00:24:04.118Z,69.29
2017-12-19T00:24:39.513Z,69.20
2017-12-19T00:25:14.684Z,69.01
2017-12-19T00:25:49.874Z,69.10
2017-12-19T00:26:25.279Z,69.20
2017-12-19T00:27:01.062Z,69.38
2017-12-19T00:27:36.754Z,69.10
2017-12-19T00:28:12.059Z,69.48
2017-12-19T00:28:47.461Z,69.10
2017-12-19T00:29:22.854Z,69.38
2017-12-19T00:29:58.146Z,69.45
2017-12-19T00:30:33.245Z,69.29
2017-12-19T00:31:08.217Z,69.48
2017-12-19T00:31:43.713Z,69.57
2017-12-19T00:32:19.180Z,69.48
2017-12-19T00:32:54.568Z,69.77
2017-12-19T00:33:29.866Z,69.48
2017-12-19T00:34:05.359Z,69.82
2017-12-19T00:34:40.863Z,69.45
2017-12-19T00:35:16.134Z,70.15
2017-12-19T00:35:51.425Z,70.53
2017-12-19T00:36:26.732Z,70.39
2017-12-19T00:37:01.898Z,70.39
2017-12-19T00:37:37.695Z,70.30
2017-12-19T00:38:13.061Z,70.20
2017-12-19T00:38:48.664Z,69.92
2017-12-19T00:39:23.861Z,70.30
2017-12-19T00:39:59.359Z,70.30
2017-12-19T00:40:34.686Z,70.39
2017-12-19T00:41:10.260Z,70.15
2017-12-19T00:41:45.460Z,70.01
2017-12-19T00:42:20.735Z,70.20
2017-12-19T00:42:55.981Z,70.58
2017-12-19T00:43:31.284Z,70.49
2017-12-19T00:44:06.678Z,70.58
2017-12-19T00:44:42.182Z,70.20
2017-12-19T00:45:17.465Z,70.58
2017-12-19T00:45:52.858Z,70.20
2017-12-19T00:46:28.251Z,70.15
2017-12-19T00:47:03.719Z,70.01
2017-12-19T00:47:38.818Z,70.11
2017-12-19T00:48:14.092Z,69.73
2017-12-19T00:48:49.689Z,70.11
2017-12-19T00:49:25.010Z,70.43
2017-12-19T00:50:00.694Z,70.39
2017-12-19T00:50:35.887Z,70.43
2017-12-19T00:51:11.364Z,70.15
2017-12-19T00:51:46.567Z,69.96
2017-12-19T00:52:21.834Z,69.64
2017-12-19T00:52:57.135Z,70.39
2017-12-19T00:53:32.424Z,70.78
2017-12-19T00:54:08.019Z,70.68
2017-12-19T00:54:43.429Z,70.68
2017-12-19T00:55:18.697Z,70.78
2017-12-19T00:55:54.395Z,70.49
2017-12-19T00:56:29.686Z,70.68
2017-12-19T00:57:04.959Z,70.68
2017-12-19T00:57:40.149Z,70.87
2017-12-19T00:58:15.420Z,70.87
2017-12-19T00:58:50.617Z,70.68
2017-12-19T00:59:26.033Z,70.78
2017-12-19T01:00:01.107Z,70.68
2017-12-19T01:00:36.603Z,70.87
2017-12-19T01:01:12.275Z,70.87
2017-12-19T01:01:47.282Z,70.90
2017-12-19T01:02:22.594Z,70.87
2017-12-19T01:02:57.886Z,70.97
2017-12-19T01:03:33.291Z,70.87
2017-12-19T01:04:08.463Z,70.58
2017-12-19T01:04:43.582Z,70.72
2017-12-19T01:05:18.960Z,70.49
2017-12-19T01:05:54.358Z,70.58
2017-12-19T01:06:29.757Z,70.49
2017-12-19T01:07:05.226Z,70.49
2017-12-19T01:07:40.427Z,70.62
2017-12-19T01:08:15.698Z,70.68
2017-12-19T01:08:51.006Z,70.39
2017-12-19T01:09:26.722Z,70.68
2017-12-19T01:10:01.988Z,70.30
2017-12-19T01:10:37.903Z,70.68
2017-12-19T01:11:13.166Z,70.01
2017-12-19T01:11:48.363Z,69.92
2017-12-19T01:12:23.931Z,70.11
2017-12-19T01:12:59.536Z,70.20
2017-12-19T01:13:34.835Z,70.30
2017-12-19T01:14:10.303Z,70.11
2017-12-19T01:14:45.422Z,70.01
2017-12-19T01:15:20.686Z,69.73
2017-12-19T01:15:55.978Z,70.68
2017-12-19T01:16:31.371Z,70.58
2017-12-19T01:17:06.539Z,70.49
2017-12-19T01:17:41.644Z,70.11
2017-12-19T01:18:17.317Z,70.11
2017-12-19T01:18:52.510Z,70.11
2017-12-19T01:19:28.011Z,69.82
2017-12-19T01:20:03.208Z,70.01
2017-12-19T01:20:38.205Z,70.20
2017-12-19T01:21:13.968Z,70.11
2017-12-19T01:21:49.374Z,70.11
2017-12-19T01:22:24.768Z,69.96
2017-12-19T01:22:59.842Z,69.73
2017-12-19T01:23:35.132Z,70.30
2017-12-19T01:24:10.604Z,70.43
2017-12-19T01:24:45.829Z,70.20
2017-12-19T01:25:21.106Z,70.20
2017-12-19T01:25:56.518Z,70.11
2017-12-19T01:26:31.925Z,69.92
2017-12-19T01:27:07.101Z,70.24
2017-12-19T01:27:44.195Z,70.24
2017-12-19T01:28:19.571Z,70.20
2017-12-19T01:28:54.860Z,70.58
2017-12-19T01:29:30.054Z,70.68
2017-12-19T01:30:05.857Z,70.97
2017-12-19T01:30:41.940Z,70.78
2017-12-19T01:31:17.213Z,70.87
2017-12-19T01:31:52.210Z,70.68
2017-12-19T01:32:27.513Z,70.49
2017-12-19T01:33:02.583Z,70.39
2017-12-19T01:33:37.976Z,70.49
2017-12-19T01:34:13.048Z,70.24
2017-12-19T01:34:48.262Z,70.24
2017-12-19T01:35:23.740Z,69.86
2017-12-19T01:35:59.327Z,70.49
2017-12-19T01:36:34.729Z,70.24
2017-12-19T01:37:10.204Z,70.58
2017-12-19T01:37:45.322Z,70.97
2017-12-19T01:38:20.695Z,70.68
2017-12-19T01:38:55.989Z,70.49
2017-12-19T01:39:31.088Z,70.78
2017-12-19T01:40:07.020Z,70.58
2017-12-19T01:40:42.322Z,70.58
2017-12-19T01:41:17.794Z,70.58
2017-12-19T01:41:53.493Z,70.24
2017-12-19T01:42:28.506Z,70.90
2017-12-19T01:43:03.678Z,70.87
2017-12-19T01:43:38.875Z,70.39
2017-12-19T01:44:14.353Z,70.20
2017-12-19T01:44:52.795Z,70.15
2017-12-19T01:45:27.893Z,70.05
2017-12-19T01:46:03.056Z,70.05
2017-12-19T01:46:39.067Z,70.24
2017-12-19T01:47:14.430Z,70.11
2017-12-19T01:47:49.629Z,70.81
2017-12-19T01:48:24.821Z,71.34
2017-12-19T01:49:00.292Z,71.25
2017-12-19T01:49:35.605Z,71.25
2017-12-19T01:50:10.894Z,71.00
2017-12-19T01:50:47.095Z,70.78
2017-12-19T01:51:22.356Z,70.68
2017-12-19T01:51:57.760Z,70.87
2017-12-19T01:52:32.859Z,70.87
2017-12-19T01:53:08.233Z,70.53
2017-12-19T01:53:43.533Z,70.62
2017-12-19T01:54:18.999Z,70.53
2017-12-19T01:54:54.238Z,70.49
2017-12-19T01:55:29.530Z,70.30
2017-12-19T01:56:04.809Z,70.39
2017-12-19T01:56:40.202Z,70.68
2017-12-19T01:57:15.375Z,70.20
2017-12-19T01:57:51.071Z,70.30
2017-12-19T01:58:26.365Z,70.39
2017-12-19T01:59:01.639Z,70.30
2017-12-19T01:59:36.833Z,70.24
2017-12-19T02:00:12.150Z,70.49
2017-12-19T02:00:47.150Z,70.58
2017-12-19T02:01:22.324Z,70.68
2017-12-19T02:01:57.716Z,70.39
2017-12-19T02:02:32.910Z,70.53
2017-12-19T02:03:08.284Z,70.58
2017-12-19T02:03:43.774Z,70.87
2017-12-19T02:04:19.363Z,71.06
2017-12-19T02:04:54.550Z,71.25
2017-12-19T02:05:29.979Z,71.25
2017-12-19T02:06:04.947Z,71.34
2017-12-19T02:06:40.340Z,71.15
2017-12-19T02:07:15.418Z,71.25
2017-12-19T02:07:51.111Z,71.44
2017-12-19T02:08:26.504Z,70.87
2017-12-19T02:09:01.686Z,70.87
2017-12-19T02:09:37.493Z,71.34
2017-12-19T02:10:12.778Z,70.87
2017-12-19T02:10:48.471Z,70.58
2017-12-19T02:11:23.749Z,70.39
2017-12-19T02:11:59.242Z,70.68
2017-12-19T02:12:34.542Z,70.39
2017-12-19T02:13:09.953Z,70.58
2017-12-19T02:13:45.099Z,70.11
2017-12-19T02:14:20.470Z,70.20
2017-12-19T02:14:55.865Z,69.96
2017-12-19T02:15:31.094Z,70.11
2017-12-19T02:16:06.670Z,70.24
2017-12-19T02:16:41.969Z,70.15
2017-12-19T02:17:17.444Z,70.01
2017-12-19T02:17:52.733Z,69.92
2017-12-19T02:18:28.129Z,70.01
2017-12-19T02:19:03.516Z,70.24
2017-12-19T02:19:38.612Z,70.24
2017-12-19T02:20:14.106Z,70.34
2017-12-19T02:20:49.403Z,70.34
2017-12-19T02:21:24.791Z,70.34
2017-12-19T02:22:00.071Z,70.15
2017-12-19T02:22:35.364Z,70.15
2017-12-19T02:23:10.530Z,70.43
2017-12-19T02:23:45.728Z,69.96
2017-12-19T02:24:20.895Z,70.05
2017-12-19T02:24:56.294Z,70.15
2017-12-19T02:25:31.911Z,69.96
2017-12-19T02:26:07.189Z,69.96
2017-12-19T02:26:42.280Z,70.15
2017-12-19T02:27:17.553Z,70.24
2017-12-19T02:27:52.775Z,70.43
2017-12-19T02:28:27.964Z,70.15
2017-12-19T02:29:03.331Z,70.15
2017-12-19T02:29:38.921Z,70.24
2017-12-19T02:30:13.991Z,70.05
2017-12-19T02:30:49.310Z,70.15
2017-12-19T02:31:24.509Z,70.72
2017-12-19T02:31:59.882Z,70.58
2017-12-19T02:32:35.273Z,70.53
2017-12-19T02:33:10.346Z,70.24
2017-12-19T02:33:45.634Z,69.96
2017-12-19T02:34:21.009Z,70.15
2017-12-19T02:34:56.604Z,70.15
2017-12-19T02:35:32.132Z,70.05
2017-12-19T02:36:07.606Z,70.05
2017-12-19T02:36:43.005Z,70.24
2017-12-19T02:37:18.280Z,70.43
2017-12-19T02:37:53.676Z,69.67
2017-12-19T02:38:28.770Z,70.15
2017-12-19T02:39:03.941Z,70.34
2017-12-19T02:39:39.431Z,70.05
2017-12-19T02:40:14.610Z,70.05
2017-12-19T02:40:49.732Z,70.05
2017-12-19T02:41:25.032Z,69.67
2017-12-19T02:42:00.099Z,69.96
2017-12-19T02:42:35.596Z,69.77
2017-12-19T02:43:10.965Z,69.96
2017-12-19T02:43:46.258Z,69.96
2017-12-19T02:44:21.499Z,69.77
2017-12-19T02:44:57.140Z,70.43
2017-12-19T02:45:32.365Z,70.24
2017-12-19T02:46:07.734Z,70.15
2017-12-19T02:46:43.137Z,69.67
2017-12-19T02:47:18.406Z,69.96
2017-12-19T02:47:53.309Z,69.77
2017-12-19T02:48:28.606Z,69.67
2017-12-19T02:49:04.175Z,69.96
2017-12-19T02:49:39.572Z,69.67
2017-12-19T02:50:14.633Z,70.15
2017-12-19T02:50:50.052Z,69.57
2017-12-19T02:51:25.257Z,69.57
2017-12-19T02:52:00.522Z,69.57
2017-12-19T02:52:35.829Z,70.05
2017-12-19T02:53:11.087Z,70.53
2017-12-19T02:53:46.284Z,70.24
2017-12-19T02:54:21.556Z,69.96
2017-12-19T02:54:56.947Z,70.05
2017-12-19T02:55:32.141Z,70.05
2017-12-19T02:56:07.730Z,69.67
2017-12-19T02:56:43.530Z,70.24
2017-12-19T02:57:18.794Z,69.86
2017-12-19T02:57:54.095Z,69.77
2017-12-19T02:58:29.287Z,70.34
2017-12-19T02:59:04.758Z,70.43
2017-12-19T02:59:40.054Z,70.05
2017-12-19T03:00:15.231Z,70.01
2017-12-19T03:00:50.855Z,70.15
2017-12-19T03:01:26.255Z,70.15
2017-12-19T03:02:01.525Z,69.96
2017-12-19T03:02:36.917Z,69.96
2017-12-19T03:03:11.986Z,69.57
2017-12-19T03:03:47.179Z,69.67
2017-12-19T03:04:22.868Z,69.86
2017-12-19T03:04:58.468Z,69.29
2017-12-19T03:05:33.563Z,69.57
2017-12-19T03:06:08.859Z,69.48
2017-12-19T03:06:44.052Z,69.77
2017-12-19T03:07:19.323Z,69.77
2017-12-19T03:07:54.516Z,69.67
2017-12-19T03:08:29.908Z,69.67
2017-12-19T03:09:05.382Z,69.48
2017-12-19T03:09:40.476Z,69.38
2017-12-19T03:10:15.652Z,69.57
2017-12-19T03:10:50.972Z,69.48
2017-12-19T03:11:26.368Z,69.77
2017-12-19T03:12:01.649Z,69.48
2017-12-19T03:12:36.949Z,69.67
2017-12-19T03:13:12.321Z,69.20
2017-12-19T03:13:47.713Z,70.05
2017-12-19T03:14:22.788Z,69.48
2017-12-19T03:14:57.983Z,70.05
2017-12-19T03:15:34.188Z,69.77
2017-12-19T03:16:09.384Z,69.48
2017-12-19T03:16:44.674Z,69.57
2017-12-19T03:17:19.850Z,70.05
2017-12-19T03:17:55.240Z,69.48
2017-12-19T03:18:30.349Z,69.57
2017-12-19T03:19:05.614Z,69.67
2017-12-19T03:19:41.016Z,69.29
2017-12-19T03:20:15.982Z,69.77
2017-12-19T03:20:51.276Z,69.96
2017-12-19T03:21:26.801Z,69.86
2017-12-19T03:22:02.466Z,69.48
2017-12-19T03:22:37.363Z,69.67
2017-12-19T03:23:12.835Z,70.43
2017-12-19T03:23:48.137Z,69.57
2017-12-19T03:24:23.517Z,69.57
2017-12-19T03:24:58.913Z,69.57
2017-12-19T03:25:34.103Z,70.05
2017-12-19T03:26:09.496Z,69.67
2017-12-19T03:26:45.087Z,69.67
2017-12-19T03:27:20.382Z,69.77
2017-12-19T03:27:55.777Z,69.57
2017-12-19T03:28:31.873Z,69.77
2017-12-19T03:29:07.439Z,69.77
2017-12-19T03:29:42.636Z,69.57
2017-12-19T03:30:18.111Z,69.67
2017-12-19T03:30:53.209Z,69.86
2017-12-19T03:31:28.634Z,69.86
2017-12-19T03:32:03.903Z,69.38
2017-12-19T03:32:39.098Z,69.92
2017-12-19T03:33:14.274Z,69.73
2017-12-19T03:33:49.571Z,69.77
2017-12-19T03:34:24.902Z,69.77
2017-12-19T03:35:00.183Z,69.29
2017-12-19T03:35:36.080Z,69.54
2017-12-19T03:36:11.167Z,69.57
2017-12-19T03:36:46.571Z,69.96
2017-12-19T03:37:21.848Z,69.86
2017-12-19T03:37:56.944Z,69.48
2017-12-19T03:38:32.654Z,69.48
2017-12-19T03:39:07.837Z,69.48
2017-12-19T03:39:43.127Z,69.67
2017-12-19T03:40:18.396Z,69.20
2017-12-19T03:40:53.708Z,69.67
2017-12-19T03:41:28.923Z,69.57
2017-12-19T03:42:04.521Z,69.48
2017-12-19T03:42:39.929Z,69.57
2017-12-19T03:43:15.316Z,69.82
2017-12-19T03:43:50.414Z,69.48
2017-12-19T03:44:25.708Z,69.57
2017-12-19T03:45:02.689Z,69.67
2017-12-19T03:45:38.979Z,69.86
2017-12-19T03:46:14.174Z,69.67
2017-12-19T03:46:49.470Z,69.67
2017-12-19T03:47:25.165Z,69.73
2017-12-19T03:48:00.646Z,69.48
2017-12-19T03:48:35.852Z,70.01
2017-12-19T03:49:11.219Z,70.01
2017-12-19T03:49:46.612Z,69.86
2017-12-19T03:50:21.793Z,70.05
2017-12-19T03:50:57.385Z,69.67
2017-12-19T03:51:32.709Z,69.57
2017-12-19T03:52:07.677Z,69.64
2017-12-19T03:52:42.874Z,69.45
2017-12-19T03:53:18.249Z,69.67
2017-12-19T03:53:53.647Z,69.54
2017-12-19T03:54:28.948Z,69.26
2017-12-19T03:55:04.512Z,69.45
2017-12-19T03:55:39.709Z,69.35
2017-12-19T03:56:15.078Z,69.26
2017-12-19T03:56:50.296Z,69.29
2017-12-19T03:57:25.290Z,69.35
2017-12-19T03:58:00.660Z,69.20
2017-12-19T03:58:36.256Z,69.17
2017-12-19T03:59:11.438Z,68.82
2017-12-19T03:59:46.531Z,68.82
2017-12-19T04:00:21.902Z,68.88
2017-12-19T04:00:57.198Z,69.17
2017-12-19T04:01:32.713Z,68.73
2017-12-19T04:02:07.984Z,68.44
2017-12-19T04:02:43.179Z,68.69
2017-12-19T04:03:18.245Z,68.73
2017-12-19T04:03:53.947Z,68.35
2017-12-19T04:04:29.342Z,68.40
2017-12-19T04:05:04.219Z,68.63
2017-12-19T04:05:39.419Z,68.69
2017-12-19T04:06:14.996Z,68.63
2017-12-19T04:06:50.221Z,68.54
2017-12-19T04:07:25.614Z,68.44
2017-12-19T04:08:00.692Z,68.35
2017-12-19T04:08:35.783Z,68.31
2017-12-19T04:09:11.252Z,68.31
2017-12-19T04:09:46.548Z,68.35
2017-12-19T04:10:21.823Z,67.77
2017-12-19T04:10:56.826Z,67.93
2017-12-19T04:11:32.063Z,67.77
2017-12-19T04:12:07.261Z,67.68
2017-12-19T04:12:42.457Z,67.93
2017-12-19T04:13:17.642Z,67.65
2017-12-19T04:13:52.941Z,67.93
2017-12-19T04:14:28.236Z,68.15
2017-12-19T04:15:03.514Z,67.87
2017-12-19T04:15:38.913Z,68.21
2017-12-19T04:16:14.083Z,67.83
2017-12-19T04:16:49.202Z,67.74
2017-12-19T04:17:24.404Z,67.96
2017-12-19T04:17:59.478Z,67.74
2017-12-19T04:18:34.872Z,68.06
2017-12-19T04:19:10.055Z,67.83
2017-12-19T04:19:45.249Z,67.93
2017-12-19T04:20:20.524Z,68.02
2017-12-19T04:20:55.923Z,68.02
2017-12-19T04:21:31.219Z,68.02
2017-12-19T04:22:06.713Z,67.74
2017-12-19T04:22:42.126Z,67.83
2017-12-19T04:23:17.602Z,67.55
2017-12-19T04:23:52.895Z,67.27
2017-12-19T04:24:28.302Z,67.30
2017-12-19T04:25:03.474Z,67.21
2017-12-19T04:25:39.277Z,67.68
2017-12-19T04:26:14.452Z,67.65
2017-12-19T04:26:49.670Z,67.11
2017-12-19T04:27:25.173Z,67.18
2017-12-19T04:28:01.047Z,67.30
2017-12-19T04:28:36.551Z,67.36
2017-12-19T04:29:11.816Z,67.21
2017-12-19T04:29:47.016Z,67.08
2017-12-19T04:30:22.397Z,67.40
2017-12-19T04:30:57.987Z,67.46
2017-12-19T04:31:33.089Z,67.58
2017-12-19T04:32:08.586Z,67.27
2017-12-19T04:32:43.781Z,67.58
2017-12-19T04:33:18.851Z,67.11
2017-12-19T04:33:54.150Z,67.21
2017-12-19T04:34:29.343Z,67.27
2017-12-19T04:35:04.610Z,67.11
2017-12-19T04:35:40.516Z,66.83
2017-12-19T04:36:16.596Z,66.99
2017-12-19T04:36:51.924Z,66.99
2017-12-19T04:37:27.114Z,67.08
2017-12-19T04:38:02.401Z,66.89
2017-12-19T04:38:37.792Z,66.93
2017-12-19T04:39:13.062Z,67.11
2017-12-19T04:39:48.369Z,66.80
2017-12-19T04:40:23.841Z,66.54
2017-12-19T04:40:59.249Z,66.35
2017-12-19T04:41:34.648Z,66.45
2017-12-19T04:42:09.945Z,66.16
2017-12-19T04:42:45.149Z,66.51
2017-12-19T04:43:20.425Z,66.41
2017-12-19T04:43:55.827Z,66.45
2017-12-19T04:44:31.130Z,66.13
2017-12-19T04:45:06.502Z,66.51
2017-12-19T04:45:43.295Z,66.60
2017-12-19T04:46:18.366Z,66.41
2017-12-19T04:46:53.684Z,66.32
2017-12-19T04:47:28.981Z,66.54
2017-12-19T04:48:04.359Z,66.35
2017-12-19T04:48:39.652Z,66.45
2017-12-19T04:49:14.932Z,66.03
2017-12-19T04:49:50.418Z,66.54
2017-12-19T04:50:25.919Z,65.88
2017-12-19T04:51:00.992Z,65.78
2017-12-19T04:51:36.504Z,65.97
2017-12-19T04:52:11.808Z,65.59
2017-12-19T04:52:47.207Z,65.97
2017-12-19T04:53:22.777Z,65.88
2017-12-19T04:53:58.089Z,65.97
2017-12-19T04:54:33.491Z,65.97
2017-12-19T04:55:08.865Z,65.78
2017-12-19T04:55:44.171Z,65.97
2017-12-19T04:56:19.446Z,65.97
2017-12-19T04:56:54.837Z,65.78
2017-12-19T04:57:30.359Z,65.78
2017-12-19T04:58:06.025Z,65.88
2017-12-19T04:58:41.027Z,65.69
2017-12-19T04:59:16.304Z,65.78
2017-12-19T04:59:51.597Z,65.97
2017-12-19T05:00:27.190Z,66.13
2017-12-19T05:01:02.763Z,66.13
2017-12-19T05:01:37.856Z,66.13
2017-12-19T05:02:13.156Z,65.66
2017-12-19T05:02:48.762Z,65.47
2017-12-19T05:03:24.047Z,65.75
2017-12-19T05:03:59.345Z,65.84
2017-12-19T05:04:34.644Z,65.97
2017-12-19T05:05:09.917Z,65.75
2017-12-19T05:05:45.220Z,65.97
2017-12-19T05:06:20.287Z,65.84
2017-12-19T05:06:55.483Z,65.94
2017-12-19T05:07:30.600Z,65.78
2017-12-19T05:08:05.976Z,66.03
2017-12-19T05:08:41.173Z,65.78
2017-12-19T05:09:16.545Z,65.84
2017-12-19T05:09:51.639Z,66.22
2017-12-19T05:10:26.938Z,65.59
2017-12-19T05:11:02.315Z,66.03
2017-12-19T05:11:37.816Z,65.47
2017-12-19T05:12:13.217Z,66.22
2017-12-19T05:12:48.627Z,66.32
2017-12-19T05:13:23.689Z,66.41
2017-12-19T05:13:58.887Z,65.88
2017-12-19T05:14:33.982Z,65.84
2017-12-19T05:15:09.164Z,65.97
2017-12-19T05:15:44.863Z,66.07
2017-12-19T05:16:20.045Z,65.97
2017-12-19T05:16:55.444Z,66.07
2017-12-19T05:17:30.560Z,65.78
2017-12-19T05:18:06.233Z,66.03
2017-12-19T05:18:41.754Z,65.75
2017-12-19T05:19:17.028Z,66.03
2017-12-19T05:19:52.238Z,65.94
2017-12-19T05:20:28.137Z,65.94
2017-12-19T05:21:03.306Z,66.03
2017-12-19T05:21:38.820Z,65.94
2017-12-19T05:22:13.900Z,65.59
2017-12-19T05:22:49.520Z,65.75
2017-12-19T05:23:24.830Z,65.94
2017-12-19T05:24:00.208Z,65.75
2017-12-19T05:24:35.502Z,65.84
2017-12-19T05:25:10.683Z,65.75
2017-12-19T05:25:45.987Z,65.59
2017-12-19T05:26:21.258Z,65.59
2017-12-19T05:26:56.553Z,65.78
2017-12-19T05:27:31.974Z,65.50
2017-12-19T05:28:07.255Z,65.41
2017-12-19T05:28:42.642Z,65.03
2017-12-19T05:29:18.021Z,65.12
2017-12-19T05:29:53.416Z,65.22
2017-12-19T05:30:28.827Z,65.31
2017-12-19T05:31:04.201Z,65.22
2017-12-19T05:31:39.415Z,65.31
2017-12-19T05:32:14.794Z,65.22
2017-12-19T05:32:50.414Z,65.22
2017-12-19T05:33:25.704Z,65.12
2017-12-19T05:34:01.075Z,65.03
2017-12-19T05:34:36.580Z,65.22
2017-12-19T05:35:11.749Z,65.22
2017-12-19T05:35:47.252Z,65.31
2017-12-19T05:36:23.628Z,65.31
2017-12-19T05:36:58.826Z,65.03
2017-12-19T05:37:34.151Z,65.03
2017-12-19T05:38:09.633Z,65.31
2017-12-19T05:38:44.839Z,65.12
2017-12-19T05:39:20.033Z,65.22
2017-12-19T05:39:58.546Z,65.31
2017-12-19T05:40:33.944Z,65.50
2017-12-19T05:41:09.232Z,65.12
2017-12-19T05:41:44.631Z,64.93
2017-12-19T05:42:20.303Z,65.22
2017-12-19T05:42:55.926Z,65.22
2017-12-19T05:43:31.119Z,65.03
2017-12-19T05:44:06.497Z,65.31
2017-12-19T05:44:41.934Z,65.31
2017-12-19T05:45:18.412Z,65.31
2017-12-19T05:45:54.023Z,65.31
2017-12-19T05:46:29.427Z,64.93
2017-12-19T05:47:05.306Z,64.93
2017-12-19T05:47:40.643Z,64.93
2017-12-19T05:48:16.215Z,64.84
2017-12-19T05:48:51.610Z,65.12
2017-12-19T05:49:26.815Z,65.31
2017-12-19T05:50:01.887Z,65.31
2017-12-19T05:50:37.582Z,64.93
2017-12-19T05:51:12.959Z,64.84
2017-12-19T05:51:48.055Z,64.93
2017-12-19T05:52:23.347Z,64.84
2017-12-19T05:52:59.092Z,65.03
2017-12-19T05:53:34.393Z,64.93
2017-12-19T05:54:09.765Z,65.22
2017-12-19T05:54:44.976Z,64.84
2017-12-19T05:55:20.351Z,65.12
2017-12-19T05:55:55.551Z,65.12
2017-12-19T05:56:30.848Z,65.03
2017-12-19T05:57:06.036Z,65.03
2017-12-19T05:57:41.132Z,65.03
2017-12-19T05:58:16.632Z,65.03
2017-12-19T05:58:51.826Z,65.03
2017-12-19T05:59:27.429Z,65.03
2017-12-19T06:00:02.515Z,65.12
2017-12-19T06:00:37.818Z,65.12
2017-12-19T06:01:12.784Z,65.03
2017-12-19T06:01:48.182Z,64.46
2017-12-19T06:02:23.359Z,64.36
2017-12-19T06:02:58.595Z,65.03
2017-12-19T06:03:34.091Z,64.65
2017-12-19T06:04:09.772Z,64.65
2017-12-19T06:04:44.778Z,64.55
2017-12-19T06:05:20.250Z,64.46
2017-12-19T06:05:55.760Z,65.03
2017-12-19T06:06:31.163Z,64.93
2017-12-19T06:07:06.646Z,64.93
2017-12-19T06:07:45.451Z,64.93
2017-12-19T06:08:20.838Z,64.84
2017-12-19T06:08:56.139Z,65.31
2017-12-19T06:09:31.488Z,65.31
2017-12-19T06:10:06.867Z,65.50
2017-12-19T06:10:42.178Z,65.31
2017-12-19T06:11:17.343Z,65.03
2017-12-19T06:11:52.646Z,64.93
2017-12-19T06:12:28.036Z,65.12
2017-12-19T06:13:05.140Z,64.93
2017-12-19T06:13:40.929Z,64.84
2017-12-19T06:14:16.406Z,64.84
2017-12-19T06:14:51.709Z,64.84
2017-12-19T06:15:26.900Z,64.46
2017-12-19T06:16:04.786Z,65.12
2017-12-19T06:16:40.078Z,64.36
2017-12-19T06:17:17.150Z,64.55
2017-12-19T06:17:55.844Z,64.65
2017-12-19T06:18:30.863Z,64.36
2017-12-19T06:19:06.248Z,65.22
2017-12-19T06:19:41.336Z,65.22
2017-12-19T06:20:16.649Z,64.36
2017-12-19T06:20:51.938Z,65.03
2017-12-19T06:21:27.035Z,64.55
2017-12-19T06:22:02.301Z,64.65
2017-12-19T06:22:37.696Z,65.03
2017-12-19T06:23:13.096Z,64.65
2017-12-19T06:23:48.586Z,64.65
2017-12-19T06:24:23.974Z,64.93
2017-12-19T06:24:59.125Z,64.55
2017-12-19T06:25:34.565Z,64.65
2017-12-19T06:26:09.741Z,64.84
2017-12-19T06:26:48.943Z,64.55
2017-12-19T06:27:24.322Z,65.31
2017-12-19T06:27:59.612Z,65.12
2017-12-19T06:28:34.940Z,64.93
2017-12-19T06:29:10.404Z,64.74
2017-12-19T06:29:45.899Z,64.74
2017-12-19T06:30:20.984Z,64.93
2017-12-19T06:30:57.876Z,64.84
2017-12-19T06:31:33.375Z,64.74
2017-12-19T06:32:08.645Z,64.74
2017-12-19T06:32:44.057Z,64.93
2017-12-19T06:33:19.146Z,64.84
2017-12-19T06:33:54.554Z,64.93
2017-12-19T06:34:32.446Z,64.55
2017-12-19T06:35:07.827Z,64.74
2017-12-19T06:35:43.123Z,64.84
2017-12-19T06:36:18.597Z,64.74
2017-12-19T06:36:53.891Z,64.65
2017-12-19T06:37:29.081Z,65.12
2017-12-19T06:38:04.250Z,64.84
2017-12-19T06:38:39.587Z,64.46
2017-12-19T06:39:14.754Z,64.84
2017-12-19T06:39:50.759Z,64.93
2017-12-19T06:40:26.155Z,64.46
2017-12-19T06:41:01.226Z,64.84
2017-12-19T06:41:36.917Z,64.65
2017-12-19T06:42:12.097Z,64.65
2017-12-19T06:42:47.306Z,64.74
2017-12-19T06:43:22.505Z,64.65
2017-12-19T06:43:57.705Z,64.84
2017-12-19T06:44:33.000Z,64.84
2017-12-19T06:45:08.374Z,64.65
2017-12-19T06:45:43.369Z,64.55
2017-12-19T06:46:18.851Z,64.55
2017-12-19T06:46:54.054Z,64.46
2017-12-19T06:47:29.154Z,64.84
2017-12-19T06:48:04.340Z,64.84
2017-12-19T06:48:39.560Z,65.03
2017-12-19T06:49:14.832Z,64.55
2017-12-19T06:49:50.132Z,64.55
2017-12-19T06:50:25.588Z,64.74
2017-12-19T06:51:00.791Z,64.84
2017-12-19T06:51:35.889Z,64.84
2017-12-19T06:52:11.160Z,64.84
2017-12-19T06:52:46.455Z,65.03
2017-12-19T06:53:21.735Z,64.74
2017-12-19T06:53:57.167Z,64.65
2017-12-19T06:54:32.565Z,64.74
2017-12-19T06:55:08.027Z,64.93
2017-12-19T06:55:43.215Z,64.65
2017-12-19T06:56:18.297Z,65.03
2017-12-19T06:56:53.378Z,64.74
2017-12-19T06:57:28.601Z,64.74
2017-12-19T06:58:03.876Z,64.74
2017-12-19T06:58:39.605Z,64.46
2017-12-19T06:59:14.876Z,64.55
2017-12-19T06:59:50.276Z,64.36
2017-12-19T07:00:25.468Z,64.36
2017-12-19T07:01:00.846Z,64.27
2017-12-19T07:01:36.641Z,64.55
2017-12-19T07:02:11.821Z,64.36
2017-12-19T07:02:47.033Z,64.46
2017-12-19T07:03:22.403Z,64.46
2017-12-19T07:03:57.514Z,64.36
2017-12-19T07:04:32.927Z,64.36
2017-12-19T07:05:08.094Z,64.17
2017-12-19T07:05:43.305Z,64.27
2017-12-19T07:06:18.785Z,64.36
2017-12-19T07:06:54.384Z,64.36
2017-12-19T07:07:29.776Z,64.36
2017-12-19T07:08:05.041Z,64.55
2017-12-19T07:08:40.267Z,64.55
2017-12-19T07:09:15.450Z,64.46
2017-12-19T07:09:50.953Z,64.08
2017-12-19T07:10:26.344Z,64.08
2017-12-19T07:11:01.926Z,64.55
2017-12-19T07:11:37.439Z,64.46
2017-12-19T07:12:12.614Z,64.46
2017-12-19T07:12:48.519Z,63.98
2017-12-19T07:13:24.292Z,63.98
2017-12-19T07:13:59.826Z,64.08
2017-12-19T07:14:35.028Z,64.17
2017-12-19T07:15:10.308Z,64.65
2017-12-19T07:15:46.810Z,64.27
2017-12-19T07:16:21.980Z,64.27
2017-12-19T07:16:57.480Z,64.36
2017-12-19T07:17:32.881Z,64.55
2017-12-19T07:18:08.150Z,64.27
2017-12-19T07:18:43.787Z,64.36
2017-12-19T07:19:19.048Z,64.27
2017-12-19T07:19:54.442Z,64.55
2017-12-19T07:20:29.640Z,64.46
2017-12-19T07:21:05.023Z,64.36
2017-12-19T07:21:42.219Z,64.36
2017-12-19T07:22:17.697Z,64.65
2017-12-19T07:22:52.929Z,64.08
2017-12-19T07:23:28.030Z,64.46
2017-12-19T07:24:03.827Z,64.17
2017-12-19T07:24:39.434Z,64.55
2017-12-19T07:25:14.612Z,64.36
2017-12-19T07:25:50.109Z,64.27
2017-12-19T07:26:25.407Z,64.27
2017-12-19T07:27:00.583Z,64.46
2017-12-19T07:27:38.284Z,64.17
2017-12-19T07:28:13.957Z,64.65
2017-12-19T07:28:49.591Z,64.27
2017-12-19T07:29:24.894Z,64.27
2017-12-19T07:30:00.368Z,64.36
2017-12-19T07:30:35.577Z,64.08
2017-12-19T07:31:11.132Z,64.27
2017-12-19T07:31:46.525Z,64.27
2017-12-19T07:32:23.698Z,63.98
2017-12-19T07:32:58.998Z,63.89
2017-12-19T07:33:34.292Z,63.70
2017-12-19T07:34:09.591Z,64.08
2017-12-19T07:34:44.793Z,64.27
2017-12-19T07:35:20.270Z,64.36
2017-12-19T07:35:55.772Z,63.98